Aérodrome :







RETROUVEZ-NOUS SUR...

 
LOGIN :

S'inscrire | Disclaimer

   EN    FR    IT 

 









Légende :    VFR   VFR Marginal   IFR   IFR Intensif   IFR Très Intensif
Visi : 
Plafond : 
>= 8 km
>= 3000ft
5 à 8 km
1000 à 3000 ft
1500m à 5 km
500 à 1000 ft
800 à 1500m
200 à 500 ft
< 800m
< 200 ft
Symboles :   Orages  Brouillard  Fortes neiges  Fortes précipitations  Vent > 20 kt






- Altitude de l'aérodrome : 110 ft
- Code IATA : YFB


CYFB - Iqaluit

DERNIER METAR :
  • 171200Z 34003KT 30SM IC FEW120 M32/M36 A2951 RMK AC1 SLP999

METARs EXPIRÉS :
  • 171100Z VRB02KT 15SM IC FEW120 M32/M36 A2949 RMK AC2 SLP993
  • 171000Z 00000KT 15SM IC SCT100 M32/M36 A2947 RMK AC3 SLP987

TAF TAF CYFB
Valide du 17 à 12h jusqu'au 18 à 12h UTC


171138Z 1712/1812 35005KT P6SM FEW120
BECMG 1804/1806 04008KT RMK NXT FCST BY 171800Z



MET'MAP, la Météo Aéronautique d'un coup d'oeil ! - Copyright ORBIFLY Décembre 2007 - Disclaimer

ORBIFLY MET'MAP TEAM :

Programmation & Développement : Alexandra Zaïnal
Sur une idée originale de : Baudouin d'Aumeries
Assistance à la programmation : Marc-Olivier Méhu
Soutien technique & logistique : Manuel Goepfert

Contact : metmap@orbifly.com




SOURCES & CREDITS :

   NOAA